RJTH(METAR)
05/27 17:00
RJTH 270800Z 21006KT 9999 FEW027 23/17 Q1012 RMK A2989=
戻る
トップページへ戻る
IMOC Co,.Ltd.